Time;durP1;ratioP1;P1;durP2;ratioP2;P2;SDS_P1;SDS_P2;PMS_P1;PMS_P2;Temp;Humidity;BMP_temperature;BMP_pressure;BME280_temperature;BME280_humidity;BME280_pressure;Samples;Min_cycle;Max_cycle;Signal;HPM_P1;HPM_P2
2021/06/21 00:00:37;;;;;;;;;;;;;;;27.18;51.00;100373.66;5058892;28;799;-36
2021/06/21 00:03:02;;;;;;;;;;;;;;;27.12;51.03;100370.72;5058981;28;1003;-34
2021/06/21 00:05:28;;;;;;;;;;;;;;;27.16;50.80;100364.91;5058867;28;760;-37
2021/06/21 00:07:53;;;;;;;;;;;;;;;27.13;51.11;100361.56;5058461;28;752;-35
2021/06/21 00:10:18;;;;;;;;;;;;;;;27.17;51.11;100362.03;5059088;28;1902;-35
2021/06/21 00:12:44;;;;;;;;;;;;;;;27.15;50.85;100366.78;5058643;28;1143;-33
2021/06/21 00:15:12;;;;;;;;;;;;;;;27.18;51.09;100370.94;5058497;28;815;-37
2021/06/21 00:17:37;;;;;;;;;;;;;;;27.18;51.27;100368.25;5058018;28;947;-34
2021/06/21 00:20:03;;;;;;;;;;;;;;;27.08;51.75;100358.59;5058303;28;1115;-36
2021/06/21 00:22:28;;;;;;;;;;;;;;;27.14;51.25;100360.53;5058433;28;812;-33
2021/06/21 00:24:54;;;;;;;;;;;;;;;27.15;51.60;100366.78;5058968;28;803;-33
2021/06/21 00:27:19;;;;;;;;;;;;;;;27.17;51.37;100361.19;5058027;28;737;-36
2021/06/21 00:29:44;;;;;;;;;;;;;;;27.13;51.70;100355.31;5058450;28;1967;-36
2021/06/21 00:32:10;;;;;;;;;;;;;;;27.09;51.88;100341.38;5058028;28;1006;-36
2021/06/21 00:34:35;;;;;;;;;;;;;;;27.13;51.92;100345.38;5057774;28;831;-36
2021/06/21 00:37:00;;;;;;;;;;;;;;;27.17;52.02;100329.63;5058260;28;816;-33
2021/06/21 00:39:26;;;;;;;;;;;;;;;27.11;52.03;100339.31;5058170;28;764;-35
2021/06/21 00:41:51;;;;;;;;;;;;;;;27.09;52.50;100333.28;5058040;28;798;-37
2021/06/21 00:44:16;;;;;;;;;;;;;;;27.15;52.21;100337.06;5058097;28;822;-36
2021/06/21 00:46:41;;;;;;;;;;;;;;;27.14;52.27;100347.03;5057772;28;1010;-37
2021/06/21 00:49:07;;;;;;;;;;;;;;;27.13;52.43;100350.78;5057516;28;1965;-37
2021/06/21 00:51:32;;;;;;;;;;;;;;;27.11;52.39;100349.31;5056295;28;1286;-34
2021/06/21 00:53:57;;;;;;;;;;;;;;;27.10;52.54;100351.16;5058382;28;970;-31
2021/06/21 00:56:23;;;;;;;;;;;;;;;27.07;52.68;100343.44;5057320;28;856;-37
2021/06/21 00:58:49;;;;;;;;;;;;;;;27.11;52.67;100346.59;5057281;28;792;-35
2021/06/21 01:01:15;;;;;;;;;;;;;;;27.17;52.48;100350.38;5057803;28;939;-36
2021/06/21 01:03:40;;;;;;;;;;;;;;;27.20;52.57;100342.75;5057600;28;832;-36
2021/06/21 01:06:05;;;;;;;;;;;;;;;27.17;52.81;100343.13;5058079;28;815;-35
2021/06/21 01:08:31;;;;;;;;;;;;;;;27.08;53.14;100342.41;5056913;28;883;-35
2021/06/21 01:10:57;;;;;;;;;;;;;;;27.07;53.41;100335.34;5057156;28;1901;-36
2021/06/21 01:13:22;;;;;;;;;;;;;;;27.08;53.33;100337.00;5057852;28;1242;-34
2021/06/21 01:16:07;;;;;;;;;;;;;;;27.06;53.37;100333.66;5057663;28;840;-33
2021/06/21 01:18:35;;;;;;;;;;;;;;;27.01;53.86;100336.94;5055148;28;1255;-36
2021/06/21 01:21:19;;;;;;;;;;;;;;;26.97;53.69;100324.00;5057516;28;768;-36
2021/06/21 01:23:56;;;;;;;;;;;;;;;27.04;53.42;100333.03;5057450;28;764;-34
2021/06/21 01:26:30;;;;;;;;;;;;;;;27.06;53.34;100332.84;5056807;28;537;-36
2021/06/21 01:28:58;;;;;;;;;;;;;;;27.08;53.38;100336.16;5057110;28;1976;-33
2021/06/21 01:31:24;;;;;;;;;;;;;;;27.05;53.83;100334.69;5056999;28;1030;-35
2021/06/21 01:33:50;;;;;;;;;;;;;;;27.04;53.63;100338.44;5057125;28;903;-36
2021/06/21 01:36:16;;;;;;;;;;;;;;;27.08;53.28;100328.06;5057555;28;772;-34
2021/06/21 01:38:43;;;;;;;;;;;;;;;27.03;53.73;100336.75;5056750;28;779;-37
2021/06/21 01:41:11;;;;;;;;;;;;;;;27.04;53.27;100329.50;5056983;28;895;-35
2021/06/21 01:43:39;;;;;;;;;;;;;;;27.05;53.31;100323.06;5056153;28;1228;-35
2021/06/21 01:46:04;;;;;;;;;;;;;;;27.06;53.54;100322.88;5056925;28;858;-37
2021/06/21 01:48:30;;;;;;;;;;;;;;;26.99;53.50;100328.16;5054879;28;951;-34
2021/06/21 01:50:56;;;;;;;;;;;;;;;27.02;53.61;100316.19;5056595;28;1968;-37
2021/06/21 01:53:22;;;;;;;;;;;;;;;27.05;53.28;100331.16;5055909;28;787;-36
2021/06/21 01:56:10;;;;;;;;;;;;;;;27.03;53.26;100320.56;5055516;28;757;-35
2021/06/21 01:58:36;;;;;;;;;;;;;;;26.94;52.18;100325.22;5056996;28;827;-38
2021/06/21 02:01:02;;;;;;;;;;;;;;;26.19;49.45;100326.22;5055123;28;775;-36
2021/06/21 02:03:27;;;;;;;;;;;;;;;25.87;49.62;100329.09;5056085;28;998;-34
2021/06/21 02:05:53;;;;;;;;;;;;;;;26.38;50.22;100334.75;5055550;28;816;-36
2021/06/21 02:08:19;;;;;;;;;;;;;;;26.65;51.00;100330.53;5055336;28;772;-37
2021/06/21 02:10:44;;;;;;;;;;;;;;;26.75;50.97;100326.69;5054354;28;1897;-36
2021/06/21 02:13:10;;;;;;;;;;;;;;;26.74;50.79;100333.13;5055347;28;1426;-36
2021/06/21 02:15:35;;;;;;;;;;;;;;;26.82;50.60;100335.69;5055425;28;780;-38
2021/06/21 02:18:00;;;;;;;;;;;;;;;26.84;50.79;100335.50;5054730;28;967;-37
2021/06/21 02:20:28;;;;;;;;;;;;;;;26.81;50.75;100334.00;5053917;28;1246;-35
2021/06/21 02:22:54;;;;;;;;;;;;;;;26.85;50.80;100340.72;5056538;28;788;-37
2021/06/21 02:25:19;;;;;;;;;;;;;;;26.86;50.72;100338.84;5056463;28;721;-37
2021/06/21 02:27:45;;;;;;;;;;;;;;;26.89;50.77;100341.16;5056136;28;776;-34
2021/06/21 02:30:14;;;;;;;;;;;;;;;26.86;50.63;100350.47;5056330;28;1909;-37
2021/06/21 02:32:41;;;;;;;;;;;;;;;26.87;51.04;100359.41;5055682;28;1021;-37
2021/06/21 02:35:07;;;;;;;;;;;;;;;26.89;50.62;100362.75;5056234;28;791;-35
2021/06/21 02:37:32;;;;;;;;;;;;;;;26.84;50.77;100359.78;5056314;28;768;-35
2021/06/21 02:39:57;;;;;;;;;;;;;;;26.90;50.56;100356.31;5055622;28;883;-35
2021/06/21 02:42:23;;;;;;;;;;;;;;;26.91;50.83;100347.19;5056245;28;760;-34
2021/06/21 02:44:48;;;;;;;;;;;;;;;26.91;50.68;100357.97;5056366;28;812;-32
2021/06/21 02:47:14;;;;;;;;;;;;;;;26.89;50.76;100358.16;5055392;28;1003;-38
2021/06/21 02:49:40;;;;;;;;;;;;;;;26.90;51.00;100359.00;5055589;28;1902;-35
2021/06/21 02:52:10;;;;;;;;;;;;;;;26.88;51.15;100364.59;5055083;28;800;-36
2021/06/21 02:54:41;;;;;;;;;;;;;;;26.86;51.13;100365.84;5054708;28;776;-37
2021/06/21 02:57:15;;;;;;;;;;;;;;;26.89;51.23;100362.75;5056195;28;743;-37
2021/06/21 02:59:41;;;;;;;;;;;;;;;26.90;51.06;100364.41;5056110;28;816;-38
2021/06/21 03:02:06;;;;;;;;;;;;;;;26.92;51.13;100351.56;5055368;28;931;-35
2021/06/21 03:04:31;;;;;;;;;;;;;;;26.88;51.39;100352.97;5054891;28;800;-35
2021/06/21 03:06:57;;;;;;;;;;;;;;;26.96;51.33;100352.03;5054886;28;811;-36
2021/06/21 03:09:22;;;;;;;;;;;;;;;26.94;51.41;100346.81;5055518;28;1902;-36
2021/06/21 03:11:51;;;;;;;;;;;;;;;26.91;51.67;100341.78;5054903;28;1176;-34
2021/06/21 03:14:17;;;;;;;;;;;;;;;26.94;51.84;100330.63;5056106;28;791;-40
2021/06/21 03:16:42;;;;;;;;;;;;;;;26.21;50.12;100328.72;5053947;28;1479;-37
2021/06/21 03:19:11;;;;;;;;;;;;;;;25.70;50.39;100332.97;5054288;28;1177;-38
2021/06/21 03:21:36;;;;;;;;;;;;;;;25.26;49.98;100328.09;5055810;28;732;-36
2021/06/21 03:24:01;;;;;;;;;;;;;;;24.99;50.58;100324.91;5054283;28;800;-37
2021/06/21 03:26:27;;;;;;;;;;;;;;;24.80;50.60;100324.38;5055881;28;795;-37
2021/06/21 03:28:53;;;;;;;;;;;;;;;24.52;51.41;100327.53;5055686;28;2000;-37
2021/06/21 03:31:18;;;;;;;;;;;;;;;24.73;50.86;100331.44;5055088;28;1211;-37
2021/06/21 03:33:43;;;;;;;;;;;;;;;24.78;50.89;100328.22;5059496;28;752;-37
2021/06/21 03:36:09;;;;;;;;;;;;;;;24.81;50.86;100323.34;5059364;28;831;-37
2021/06/21 03:38:34;;;;;;;;;;;;;;;24.64;51.26;100314.50;5057665;28;1081;-37
2021/06/21 03:41:00;;;;;;;;;;;;;;;24.66;51.52;100322.41;5059334;28;718;-37
2021/06/21 03:43:25;;;;;;;;;;;;;;;24.21;52.80;100313.06;5059400;28;748;-37
2021/06/21 03:45:51;;;;;;;;;;;;;;;23.22;55.88;100319.38;5058883;28;811;-37
2021/06/21 03:48:17;;;;;;;;;;;;;;;22.86;57.07;100315.97;5059030;28;931;-37
2021/06/21 03:50:42;;;;;;;;;;;;;;;22.69;57.75;100323.13;5057312;28;1989;-37
2021/06/21 03:53:07;;;;;;;;;;;;;;;22.77;57.89;100321.50;5059374;28;801;-36
2021/06/21 03:55:33;;;;;;;;;;;;;;;23.75;55.82;100321.72;5058954;28;756;-36
2021/06/21 03:57:58;;;;;;;;;;;;;;;24.27;53.98;100329.50;5058580;28;839;-33
2021/06/21 04:00:24;;;;;;;;;;;;;;;24.34;52.23;100330.47;5058671;28;1409;-37
2021/06/21 04:02:50;;;;;;;;;;;;;;;24.36;53.30;100341.88;5058082;28;943;-33
2021/06/21 04:05:15;;;;;;;;;;;;;;;24.18;54.19;100340.28;5041753;28;847;-35
2021/06/21 04:07:41;;;;;;;;;;;;;;;24.23;54.82;100337.06;5038864;28;492;-35
2021/06/21 04:10:09;;;;;;;;;;;;;;;24.21;55.01;100339.94;5038576;28;1968;-30
2021/06/21 04:12:36;;;;;;;;;;;;;;;24.08;55.41;100337.75;5049426;28;1194;-35
2021/06/21 04:15:01;;;;;;;;;;;;;;;24.21;55.06;100331.88;5058435;28;825;-33
2021/06/21 04:17:27;;;;;;;;;;;;;;;24.25;55.11;100334.19;5057550;28;951;-36
2021/06/21 04:19:52;;;;;;;;;;;;;;;22.22;57.06;100340.53;5058407;28;1276;-35
2021/06/21 04:22:18;;;;;;;;;;;;;;;20.85;63.41;100338.91;5058381;28;798;-34
2021/06/21 04:24:43;;;;;;;;;;;;;;;20.61;64.04;100335.81;5058225;28;782;-36
2021/06/21 04:27:08;;;;;;;;;;;;;;;20.34;64.57;100339.31;5058341;28;838;-31
2021/06/21 04:29:33;;;;;;;;;;;;;;;20.04;65.73;100340.28;5058382;28;1981;-33
2021/06/21 04:31:59;;;;;;;;;;;;;;;21.46;63.78;100344.53;5057628;28;1005;-36
2021/06/21 04:34:24;;;;;;;;;;;;;;;22.91;59.97;100349.50;5058127;28;726;-36
2021/06/21 04:36:49;;;;;;;;;;;;;;;22.81;56.50;100349.66;5058340;28;760;-36
2021/06/21 04:39:15;;;;;;;;;;;;;;;19.97;67.62;100344.47;5057795;28;788;-36
2021/06/21 04:41:40;;;;;;;;;;;;;;;22.44;62.24;100349.81;5057996;28;808;-36
2021/06/21 04:44:05;;;;;;;;;;;;;;;23.11;60.82;100350.03;5057610;28;817;-33
2021/06/21 04:46:33;;;;;;;;;;;;;;;23.72;58.49;100347.06;5057439;28;943;-36
2021/06/21 04:48:59;;;;;;;;;;;;;;;21.38;62.45;100339.97;5057855;28;1909;-36
2021/06/21 04:51:25;;;;;;;;;;;;;;;20.43;65.03;100349.97;5058437;28;780;-36
2021/06/21 04:53:50;;;;;;;;;;;;;;;22.57;61.69;100344.00;5057455;28;807;-36
2021/06/21 04:56:15;;;;;;;;;;;;;;;23.42;59.60;100351.28;5057250;28;784;-35
2021/06/21 04:58:41;;;;;;;;;;;;;;;21.68;60.82;100346.84;5057924;28;822;-35
2021/06/21 05:01:07;;;;;;;;;;;;;;;20.73;67.34;100352.50;5057116;28;881;-38
2021/06/21 05:03:32;;;;;;;;;;;;;;;22.70;63.05;100346.28;5057217;28;1014;-38
2021/06/21 05:05:58;;;;;;;;;;;;;;;23.49;60.95;100352.28;5057838;28;1447;-36
2021/06/21 05:08:23;;;;;;;;;;;;;;;24.00;58.44;100345.00;5056205;28;1269;-35
2021/06/21 05:10:49;;;;;;;;;;;;;;;22.49;56.83;100352.03;5057396;28;1961;-35
2021/06/21 05:13:14;;;;;;;;;;;;;;;20.89;63.67;100332.25;5057324;28;1147;-35
2021/06/21 05:15:39;;;;;;;;;;;;;;;20.18;64.10;100336.31;5057067;28;807;-36
2021/06/21 05:18:05;;;;;;;;;;;;;;;22.45;60.67;100339.97;5057068;28;947;-33
2021/06/21 05:20:30;;;;;;;;;;;;;;;21.53;57.84;100336.72;5057202;28;1111;-35
2021/06/21 05:22:56;;;;;;;;;;;;;;;20.29;62.19;100334.41;5056666;28;831;-34
2021/06/21 05:25:21;;;;;;;;;;;;;;;20.64;66.35;100338.19;5057433;28;779;-34
2021/06/21 05:27:46;;;;;;;;;;;;;;;23.23;56.04;100346.03;5057118;28;827;-35
2021/06/21 05:30:12;;;;;;;;;;;;;;;23.63;53.24;100360.66;5056929;28;1969;-33
2021/06/21 05:32:37;;;;;;;;;;;;;;;20.28;61.44;100359.44;5056769;28;1013;-35
2021/06/21 05:35:06;;;;;;;;;;;;;;;19.65;62.43;100356.34;5057142;28;795;-35
2021/06/21 05:37:31;;;;;;;;;;;;;;;21.23;62.10;100358.38;5056614;28;841;-30
2021/06/21 05:39:56;;;;;;;;;;;;;;;23.37;54.41;100365.19;5057467;28;732;-36
2021/06/21 05:42:21;;;;;;;;;;;;;;;22.04;53.41;100364.72;5056849;28;827;-32
2021/06/21 05:44:47;;;;;;;;;;;;;;;20.63;59.15;100362.38;5056654;28;760;-33
2021/06/21 05:47:14;;;;;;;;;;;;;;;19.83;60.74;100351.94;5056582;28;947;-32
2021/06/21 05:49:39;;;;;;;;;;;;;;;19.68;61.03;100362.25;5056436;28;1906;-36
2021/06/21 05:52:05;;;;;;;;;;;;;;;22.31;57.28;100357.47;5056470;28;858;-31
2021/06/21 05:54:30;;;;;;;;;;;;;;;23.45;54.56;100370.59;5056575;28;805;-32
2021/06/21 05:56:55;;;;;;;;;;;;;;;20.91;57.85;100365.88;5056637;28;815;-33
2021/06/21 05:59:21;;;;;;;;;;;;;;;19.83;60.52;100367.94;5056361;28;847;-29
2021/06/21 06:01:46;;;;;;;;;;;;;;;19.50;61.72;100374.59;5056295;28;993;-32
2021/06/21 06:04:11;;;;;;;;;;;;;;;19.39;61.79;100375.56;5056464;28;808;-36
2021/06/21 06:06:36;;;;;;;;;;;;;;;19.33;62.30;100382.31;5056249;28;760;-30
2021/06/21 06:09:02;;;;;;;;;;;;;;;21.08;61.63;100381.28;5056594;28;1986;-31
2021/06/21 06:11:27;;;;;;;;;;;;;;;23.08;53.77;100379.88;5056343;28;1131;-35
2021/06/21 06:13:52;;;;;;;;;;;;;;;21.28;55.88;100377.50;5056001;28;828;-30
2021/06/21 06:16:18;;;;;;;;;;;;;;;20.25;60.04;100378.44;5055843;28;959;-34
2021/06/21 06:18:44;;;;;;;;;;;;;;;19.61;62.11;100381.63;5056036;28;1295;-37
2021/06/21 06:21:10;;;;;;;;;;;;;;;19.47;62.49;100382.91;5056397;28;726;-36
2021/06/21 06:23:35;;;;;;;;;;;;;;;19.52;62.34;100391.31;5056156;28;811;-32
2021/06/21 06:26:01;;;;;;;;;;;;;;;21.74;59.35;100391.75;5056164;28;746;-36
2021/06/21 06:28:26;;;;;;;;;;;;;;;23.19;54.31;100384.94;5056350;28;767;-30
2021/06/21 06:30:53;;;;;;;;;;;;;;;20.91;57.97;100384.59;5055732;28;1910;-32
2021/06/21 06:33:18;;;;;;;;;;;;;;;19.93;59.86;100380.47;5055857;28;1003;-34
2021/06/21 06:35:43;;;;;;;;;;;;;;;19.39;61.77;100376.44;5056356;28;780;-36
2021/06/21 06:38:09;;;;;;;;;;;;;;;19.22;61.98;100377.94;5055926;28;793;-36
2021/06/21 06:40:34;;;;;;;;;;;;;;;19.47;65.51;100388.22;5056154;28;782;-30
2021/06/21 06:43:00;;;;;;;;;;;;;;;22.34;55.52;100379.44;5056257;28;804;-36
2021/06/21 06:45:25;;;;;;;;;;;;;;;23.41;53.37;100384.47;5055591;28;1024;-35
2021/06/21 06:47:50;;;;;;;;;;;;;;;20.51;58.42;100378.63;5055387;28;951;-36
2021/06/21 06:50:16;;;;;;;;;;;;;;;19.66;60.09;100379.38;5056137;28;1902;-37
2021/06/21 06:52:43;;;;;;;;;;;;;;;19.40;60.98;100380.75;5054323;28;846;-35
2021/06/21 06:57:52;;;;;;;;;;;;;;;21.16;59.81;100376.03;5055801;28;665;-34
2021/06/21 07:00:17;;;;;;;;;;;;;;;22.85;53.32;100378.69;5055265;28;824;-34
2021/06/21 07:02:43;;;;;;;;;;;;;;;22.37;52.91;100394.38;5055624;28;1021;-38
2021/06/21 07:05:09;;;;;;;;;;;;;;;22.65;51.87;100393.34;5056198;28;778;-39
2021/06/21 07:07:34;;;;;;;;;;;;;;;23.66;49.92;100401.44;5058803;28;760;-39
2021/06/21 07:09:59;;;;;;;;;;;;;;;24.14;48.78;100399.88;5058943;28;1969;-39
2021/06/21 07:12:24;;;;;;;;;;;;;;;24.42;48.35;100403.00;5060035;28;1210;-38
2021/06/21 07:14:50;;;;;;;;;;;;;;;24.68;48.26;100401.91;5059259;28;847;-37
2021/06/21 07:17:15;;;;;;;;;;;;;;;24.87;48.27;100397.13;5059007;28;998;-35
2021/06/21 07:19:40;;;;;;;;;;;;;;;25.01;48.48;100395.56;5059170;28;1234;-39
2021/06/21 07:22:07;;;;;;;;;;;;;;;25.18;48.60;100406.22;5059440;28;776;-34
2021/06/21 07:24:32;;;;;;;;;;;;;;;25.26;48.33;100405.31;5058294;28;813;-35
2021/06/21 07:26:57;;;;;;;;;;;;;;;25.36;47.79;100407.78;5059224;28;851;-34
2021/06/21 07:29:23;;;;;;;;;;;;;;;25.58;47.63;100407.94;5059190;28;1910;-32
2021/06/21 07:31:48;;;;;;;;;;;;;;;25.57;47.63;100401.75;5059060;28;1036;-34
2021/06/21 07:34:13;;;;;;;;;;;;;;;25.69;47.60;100402.19;5059555;28;740;-30
2021/06/21 07:36:38;;;;;;;;;;;;;;;25.77;47.37;100406.66;5059113;28;895;-35
2021/06/21 07:39:04;;;;;;;;;;;;;;;25.86;47.34;100410.94;5059545;28;804;-34
2021/06/21 07:41:29;;;;;;;;;;;;;;;25.93;47.24;100413.72;5059279;28;764;-32
2021/06/21 07:43:55;;;;;;;;;;;;;;;25.91;47.12;100407.69;5058893;28;808;-31
2021/06/21 07:46:20;;;;;;;;;;;;;;;26.04;46.62;100407.88;5058956;28;1003;-30
2021/06/21 07:48:46;;;;;;;;;;;;;;;26.09;46.85;100412.72;5058986;28;752;-33
2021/06/21 07:51:13;;;;;;;;;;;;;;;26.24;46.64;100406.53;5058852;28;1910;-32
2021/06/21 07:53:38;;;;;;;;;;;;;;;26.28;46.52;100413.22;5059109;28;824;-33
2021/06/21 07:56:05;;;;;;;;;;;;;;;26.33;46.34;100416.22;5059010;28;755;-32
2021/06/21 07:58:30;;;;;;;;;;;;;;;26.38;46.23;100416.50;5058735;28;801;-36
2021/06/21 08:00:56;;;;;;;;;;;;;;;26.38;45.91;100413.81;5058989;28;764;-32
2021/06/21 08:03:21;;;;;;;;;;;;;;;26.38;45.91;100410.25;5058346;28;927;-33
2021/06/21 08:05:49;;;;;;;;;;;;;;;26.44;46.16;100411.38;5058471;28;808;-32
2021/06/21 08:08:15;;;;;;;;;;;;;;;26.53;45.82;100421.91;5058816;28;881;-34
2021/06/21 08:10:40;;;;;;;;;;;;;;;26.54;45.94;100420.03;5058336;28;1906;-34
2021/06/21 08:13:05;;;;;;;;;;;;;;;26.57;45.18;100422.34;5058464;28;1140;-34
2021/06/21 08:15:30;;;;;;;;;;;;;;;26.63;45.11;100418.91;5058512;28;756;-34
2021/06/21 08:17:56;;;;;;;;;;;;;;;26.71;45.19;100415.25;5057552;28;1014;-32
2021/06/21 08:20:21;;;;;;;;;;;;;;;26.70;45.26;100419.00;5058301;28;1112;-32
2021/06/21 08:22:46;;;;;;;;;;;;;;;26.69;44.92;100419.19;5058634;28;831;-39
2021/06/21 08:25:12;;;;;;;;;;;;;;;26.68;44.95;100421.03;5058212;28;760;-34
2021/06/21 08:27:37;;;;;;;;;;;;;;;26.76;45.05;100420.94;5058024;28;720;-33
2021/06/21 08:30:03;;;;;;;;;;;;;;;26.88;44.78;100423.13;5058403;28;1918;-38
2021/06/21 08:32:29;;;;;;;;;;;;;;;26.88;44.86;100418.59;5057943;28;951;-32
2021/06/21 08:34:54;;;;;;;;;;;;;;;26.89;44.53;100422.13;5058354;28;791;-34
2021/06/21 08:37:21;;;;;;;;;;;;;;;26.90;45.01;100421.94;5057703;28;784;-32
2021/06/21 08:39:47;;;;;;;;;;;;;;;26.93;44.57;100426.09;5058155;28;807;-32
2021/06/21 08:42:12;;;;;;;;;;;;;;;26.95;44.13;100421.38;5057974;28;784;-33
2021/06/21 08:44:38;;;;;;;;;;;;;;;27.02;44.42;100432.28;5057824;28;818;-32
2021/06/21 08:47:03;;;;;;;;;;;;;;;27.06;44.20;100424.63;5057733;28;1010;-34
2021/06/21 08:49:31;;;;;;;;;;;;;;;27.09;44.26;100427.75;5057721;28;1973;-38
2021/06/21 08:51:57;;;;;;;;;;;;;;;27.14;44.31;100433.44;5056668;28;825;-32
2021/06/21 08:54:22;;;;;;;;;;;;;;;27.14;44.38;100430.72;5056902;28;760;-34
2021/06/21 08:56:47;;;;;;;;;;;;;;;27.20;43.97;100431.84;5057438;28;997;-33
2021/06/21 08:59:13;;;;;;;;;;;;;;;27.21;43.80;100430.00;5057411;28;821;-31
2021/06/21 09:01:39;;;;;;;;;;;;;;;27.21;44.11;100430.00;5057455;28;994;-32
2021/06/21 09:04:05;;;;;;;;;;;;;;;27.22;44.03;100435.19;5057928;28;747;-39
2021/06/21 09:06:37;;;;;;;;;;;;;;;27.31;44.00;100438.59;5057000;28;756;-38
2021/06/21 09:09:02;;;;;;;;;;;;;;;27.25;43.78;100433.97;5057752;28;1975;-33
2021/06/21 09:11:49;;;;;;;;;;;;;;;27.24;43.47;100432.31;5057054;28;1191;-35
2021/06/21 09:14:23;;;;;;;;;;;;;;;27.31;43.49;100433.19;5057444;28;811;-34
2021/06/21 09:16:49;;;;;;;;;;;;;;;27.26;43.59;100436.47;5056943;28;947;-32
2021/06/21 09:19:14;;;;;;;;;;;;;;;27.33;43.49;100427.59;5057171;28;1068;-32
2021/06/21 09:21:39;;;;;;;;;;;;;;;27.42;43.70;100426.47;5056297;28;775;-33
2021/06/21 09:24:12;;;;;;;;;;;;;;;27.40;42.83;100428.50;5057421;28;760;-31
2021/06/21 09:26:37;;;;;;;;;;;;;;;27.33;42.83;100424.88;5056795;28;768;-34
2021/06/21 09:29:04;;;;;;;;;;;;;;;27.00;42.73;100421.63;5056644;28;1913;-34
2021/06/21 09:31:30;;;;;;;;;;;;;;;27.05;42.97;100425.63;5057076;28;1029;-32
2021/06/21 09:34:13;;;;;;;;;;;;;;;27.08;43.86;100426.09;5055356;28;828;-39
2021/06/21 09:36:39;;;;;;;;;;;;;;;26.97;43.67;100419.31;5057229;28;764;-34
2021/06/21 09:39:17;;;;;;;;;;;;;;;26.97;44.06;100424.72;5057186;28;752;-34
2021/06/21 09:41:42;;;;;;;;;;;;;;;26.60;51.46;100421.13;5056242;28;811;-35
2021/06/21 09:44:08;;;;;;;;;;;;;;;27.10;50.58;100418.66;5056801;28;859;-35
2021/06/21 09:46:33;;;;;;;;;;;;;;;27.01;48.19;100412.53;5056305;28;995;-36
2021/06/21 09:48:58;;;;;;;;;;;;;;;27.05;49.32;100420.25;5056504;28;1953;-35
2021/06/21 09:51:33;;;;;;;;;;;;;;;27.19;52.28;100419.38;5056938;28;821;-36
2021/06/21 09:54:00;;;;;;;;;;;;;;;27.00;54.33;100423.47;5056966;28;814;-38
2021/06/21 09:56:45;;;;;;;;;;;;;;;27.18;54.31;100427.66;5056121;28;852;-36
2021/06/21 09:59:20;;;;;;;;;;;;;;;26.98;54.44;100425.53;5056826;28;1439;-33
2021/06/21 10:01:58;;;;;;;;;;;;;;;26.87;52.90;100425.03;5056202;28;1002;-33
2021/06/21 10:04:24;;;;;;;;;;;;;;;27.12;53.04;100423.88;5054789;28;1311;-34
2021/06/21 10:06:49;;;;;;;;;;;;;;;27.22;53.00;100418.16;5056470;28;787;-34
2021/06/21 10:09:14;;;;;;;;;;;;;;;27.32;52.53;100415.13;5056175;28;1973;-31
2021/06/21 10:11:44;;;;;;;;;;;;;;;27.28;53.60;100411.97;5055902;28;1175;-35
2021/06/21 10:14:10;;;;;;;;;;;;;;;26.84;54.28;100411.06;5056392;28;771;-33
2021/06/21 10:16:36;;;;;;;;;;;;;;;26.48;54.33;100418.91;5055928;28;994;-31
2021/06/21 10:19:01;;;;;;;;;;;;;;;27.27;52.31;100418.41;5055606;28;1097;-35
2021/06/21 10:21:27;;;;;;;;;;;;;;;26.96;53.68;100420.31;5056492;28;741;-34
2021/06/21 10:23:53;;;;;;;;;;;;;;;27.28;52.17;100419.25;5056243;28;796;-36
2021/06/21 10:26:18;;;;;;;;;;;;;;;26.89;53.19;100416.72;5056157;28;772;-35
2021/06/21 10:28:44;;;;;;;;;;;;;;;27.46;51.48;100414.22;5055018;28;768;-33
2021/06/21 10:31:10;;;;;;;;;;;;;;;27.12;51.42;100426.56;5054574;28;1967;-33
2021/06/21 10:33:35;;;;;;;;;;;;;;;27.16;50.92;100425.13;5055469;28;986;-36
2021/06/21 10:36:00;;;;;;;;;;;;;;;22.52;56.08;100418.72;5056316;28;811;-35
2021/06/21 10:38:26;;;;;;;;;;;;;;;23.03;51.68;100412.56;5056156;28;734;-36
2021/06/21 10:40:54;;;;;;;;;;;;;;;24.02;50.75;100412.84;5056376;28;807;-36
2021/06/21 10:43:38;;;;;;;;;;;;;;;24.15;49.80;100410.47;5060879;28;795;-37
2021/06/21 10:46:22;;;;;;;;;;;;;;;24.24;49.06;100408.59;5060362;28;760;-37
2021/06/21 10:49:08;;;;;;;;;;;;;;;23.96;49.91;100406.28;5059860;28;780;-35
2021/06/21 10:51:40;;;;;;;;;;;;;;;23.95;49.46;100402.78;5052801;28;1405;-35
2021/06/21 10:54:06;;;;;;;;;;;;;;;23.72;49.51;100408.00;5060216;28;762;-34
2021/06/21 10:56:42;;;;;;;;;;;;;;;21.97;55.05;100407.34;5059613;28;808;-36
2021/06/21 10:59:14;;;;;;;;;;;;;;;20.95;59.00;100408.41;5059903;28;788;-35
2021/06/21 11:01:44;;;;;;;;;;;;;;;20.49;60.27;100411.81;5059780;28;1191;-34
2021/06/21 11:04:09;;;;;;;;;;;;;;;20.38;60.76;100405.69;5059657;28;820;-37
2021/06/21 11:06:35;;;;;;;;;;;;;;;20.26;61.32;100412.16;5059838;28;847;-35
2021/06/21 11:09:00;;;;;;;;;;;;;;;20.09;61.55;100406.59;5059913;28;1909;-36
2021/06/21 11:11:35;;;;;;;;;;;;;;;20.03;61.56;100404.47;5059621;28;1112;-35
2021/06/21 11:14:10;;;;;;;;;;;;;;;19.36;61.97;100299.38;5059472;28;825;-35
2021/06/21 11:16:35;;;;;;;;;;;;;;;20.00;62.12;100397.56;5059459;28;1002;-35
2021/06/21 11:19:30;;;;;;;;;;;;;;;19.85;62.74;100394.53;5059260;28;1151;-34
2021/06/21 11:21:56;;;;;;;;;;;;;;;21.51;61.58;100406.47;5046769;28;1210;-35
2021/06/21 11:24:42;;;;;;;;;;;;;;;23.82;52.47;100405.97;5059935;28;748;-34
2021/06/21 11:27:07;;;;;;;;;;;;;;;22.19;55.60;100397.94;5059620;28;789;-34
2021/06/21 11:29:36;;;;;;;;;;;;;;;20.31;59.99;100397.41;5059624;28;1981;-36
2021/06/21 11:32:02;;;;;;;;;;;;;;;20.04;61.55;100391.00;5059031;28;955;-35
2021/06/21 11:34:42;;;;;;;;;;;;;;;19.79;62.26;100401.25;5059530;28;796;-36
2021/06/21 11:37:26;;;;;;;;;;;;;;;19.71;62.59;100401.13;5059350;28;817;-36
2021/06/21 11:39:57;;;;;;;;;;;;;;;19.70;63.00;100397.63;5059414;28;784;-37
2021/06/21 11:42:24;;;;;;;;;;;;;;;19.59;63.31;100408.44;5057857;28;1320;-36
2021/06/21 11:44:50;;;;;;;;;;;;;;;21.76;60.12;100411.16;5059092;28;880;-37
2021/06/21 11:47:21;;;;;;;;;;;;;;;23.66;52.63;100398.75;5059107;28;958;-37
2021/06/21 11:49:47;;;;;;;;;;;;;;;22.15;55.10;100393.91;5058925;28;1905;-35
2021/06/21 11:52:17;;;;;;;;;;;;;;;20.27;59.73;100397.84;5058862;28;743;-37
2021/06/21 11:54:44;;;;;;;;;;;;;;;19.79;61.99;100393.25;5058979;28;752;-34
2021/06/21 11:57:09;;;;;;;;;;;;;;;19.54;62.44;100390.19;5058919;28;815;-36
2021/06/21 11:59:36;;;;;;;;;;;;;;;19.61;62.69;100385.13;5058982;28;795;-35
2021/06/21 12:02:08;;;;;;;;;;;;;;;19.60;62.83;100383.47;5058121;28;1526;-36
2021/06/21 12:04:34;;;;;;;;;;;;;;;19.54;62.94;100376.84;5057208;28;1086;-36
2021/06/21 12:06:59;;;;;;;;;;;;;;;21.33;60.70;100385.06;5058920;28;1126;-37
2021/06/21 12:09:24;;;;;;;;;;;;;;;23.44;52.64;100386.84;5058478;28;1965;-34
2021/06/21 12:11:53;;;;;;;;;;;;;;;24.20;50.96;100378.56;5057086;28;1164;-35
2021/06/21 12:14:19;;;;;;;;;;;;;;;24.56;51.91;100389.84;5058896;28;776;-34
2021/06/21 12:16:44;;;;;;;;;;;;;;;21.15;58.03;100377.03;5058078;28;943;-35
2021/06/21 12:19:10;;;;;;;;;;;;;;;20.07;60.49;100379.19;5058420;28;1135;-35
2021/06/21 12:21:39;;;;;;;;;;;;;;;19.77;62.08;100381.88;5058748;28;755;-34
2021/06/21 12:24:23;;;;;;;;;;;;;;;19.62;62.24;100375.31;5058435;28;812;-35
2021/06/21 12:26:53;;;;;;;;;;;;;;;19.54;62.37;100378.66;5058440;28;748;-36
2021/06/21 12:29:31;;;;;;;;;;;;;;;19.48;62.79;100372.09;5058365;28;1975;-34
2021/06/21 12:32:15;;;;;;;;;;;;;;;19.94;65.39;100374.13;5057748;28;1018;-37
2021/06/21 12:34:46;;;;;;;;;;;;;;;23.07;53.84;100373.66;5058435;28;824;-35
2021/06/21 12:37:14;;;;;;;;;;;;;;;24.09;51.69;100378.88;5058330;28;820;-34
2021/06/21 12:39:40;;;;;;;;;;;;;;;24.57;51.14;100370.84;5057844;28;820;-35
2021/06/21 12:42:11;;;;;;;;;;;;;;;21.10;58.83;100372.13;5058240;28;851;-35
2021/06/21 12:44:37;;;;;;;;;;;;;;;19.92;61.49;100362.75;5058591;28;831;-35
2021/06/21 12:47:12;;;;;;;;;;;;;;;19.65;61.98;100367.84;5057263;28;975;-36
2021/06/21 12:49:38;;;;;;;;;;;;;;;19.56;62.45;100360.69;5057876;28;1973;-36
2021/06/21 12:52:03;;;;;;;;;;;;;;;19.47;62.38;100369.56;5058165;28;772;-36
2021/06/21 12:54:30;;;;;;;;;;;;;;;19.39;62.99;100367.56;5057892;28;868;-36